createdAt,value
2019-05-14T00:01:03.453Z,45.40
2019-05-14T00:03:51.893Z,44.73
2019-05-14T00:06:41.892Z,42.20
2019-05-14T00:09:32.184Z,43.65
2019-05-14T00:12:22.296Z,42.17
2019-05-14T00:15:11.854Z,42.50
2019-05-14T00:18:01.227Z,44.40
2019-05-14T00:20:51.186Z,42.43
2019-05-14T00:23:41.981Z,41.80
2019-05-14T00:26:31.844Z,42.23
2019-05-14T00:29:22.002Z,40.85
2019-05-14T00:32:11.226Z,40.88
2019-05-14T00:35:02.074Z,41.80
2019-05-14T00:37:51.928Z,42.27
2019-05-14T00:40:41.818Z,42.00
2019-05-14T00:43:32.051Z,41.55
2019-05-14T00:46:21.205Z,41.85
2019-05-14T00:49:11.747Z,41.48
2019-05-14T00:52:02.065Z,40.73
2019-05-14T00:54:52.174Z,41.18
2019-05-14T00:57:42.478Z,40.50
2019-05-14T01:00:32.051Z,41.18
2019-05-14T01:03:21.743Z,39.78
2019-05-14T01:06:22.461Z,40.45
2019-05-14T01:09:11.434Z,39.98
2019-05-14T01:12:01.813Z,41.40
2019-05-14T01:14:52.899Z,41.55
2019-05-14T01:17:42.006Z,40.67
2019-05-14T01:20:31.918Z,41.08
2019-05-14T01:23:21.672Z,40.38
2019-05-14T01:26:11.482Z,39.55
2019-05-14T01:29:01.430Z,40.90
2019-05-14T01:31:52.016Z,40.40
2019-05-14T01:34:42.116Z,38.92
2019-05-14T01:37:31.210Z,39.00
2019-05-14T01:40:21.696Z,40.63
2019-05-14T01:43:11.540Z,39.63
2019-05-14T01:46:02.041Z,41.40
2019-05-14T01:48:52.281Z,39.23
2019-05-14T01:51:42.519Z,39.15
2019-05-14T01:54:31.776Z,38.70
2019-05-14T01:57:21.948Z,38.58
2019-05-14T02:00:11.453Z,40.20
2019-05-14T02:03:01.863Z,38.98
2019-05-14T02:05:52.139Z,39.35
2019-05-14T02:08:41.339Z,38.08
2019-05-14T02:11:31.885Z,38.58
2019-05-14T02:14:21.930Z,39.70
2019-05-14T02:17:12.157Z,38.17
2019-05-14T02:20:01.849Z,39.27
2019-05-14T02:22:52.271Z,39.40
2019-05-14T02:25:41.284Z,38.48
2019-05-14T02:28:31.495Z,37.98
2019-05-14T02:31:20.424Z,38.98
2019-05-14T02:34:10.571Z,37.15
2019-05-14T02:37:00.408Z,39.13
2019-05-14T02:39:50.481Z,38.17
2019-05-14T02:42:40.129Z,37.03
2019-05-14T02:45:30.381Z,37.75
2019-05-14T02:48:20.364Z,37.78
2019-05-14T02:51:10.525Z,37.48
2019-05-14T02:53:59.404Z,38.30
2019-05-14T02:56:49.565Z,38.65
2019-05-14T02:59:39.443Z,36.58
2019-05-14T03:02:29.707Z,38.02
2019-05-14T03:05:19.291Z,37.85
2019-05-14T03:08:09.059Z,37.15
2019-05-14T03:11:00.240Z,51.83
2019-05-14T03:13:49.482Z,124.22
2019-05-14T03:16:40.440Z,114.82
2019-05-14T03:19:29.777Z,105.20
2019-05-14T03:22:25.713Z,100.02
2019-05-14T03:25:10.046Z,105.70
2019-05-14T03:27:59.987Z,107.85
2019-05-14T03:30:52.258Z,100.55
2019-05-14T03:33:43.114Z,100.18
2019-05-14T03:36:33.353Z,86.05
2019-05-14T03:39:19.105Z,154.07
2019-05-14T03:42:09.400Z,176.55
2019-05-14T03:44:59.581Z,176.00
2019-05-14T03:47:50.418Z,149.82
2019-05-14T03:50:38.966Z,138.30
2019-05-14T03:53:29.616Z,128.60
2019-05-14T03:56:19.249Z,116.37
2019-05-14T03:59:09.646Z,111.08
2019-05-14T04:01:59.676Z,105.92
2019-05-14T04:04:50.038Z,104.95
2019-05-14T04:07:39.360Z,94.87
2019-05-14T04:10:30.076Z,96.78
2019-05-14T04:13:19.853Z,87.67
2019-05-14T04:16:09.326Z,84.87
2019-05-14T04:18:59.609Z,83.60
2019-05-14T04:21:50.661Z,79.47
2019-05-14T04:24:41.517Z,76.42
2019-05-14T04:27:30.125Z,76.62
2019-05-14T04:30:23.697Z,73.02
2019-05-14T04:33:10.567Z,70.25
2019-05-14T04:36:00.080Z,70.42
2019-05-14T04:38:54.283Z,68.65
2019-05-14T04:41:39.533Z,65.80
2019-05-14T04:44:29.761Z,68.07
2019-05-14T04:47:31.561Z,65.83
2019-05-14T04:50:10.506Z,65.35
2019-05-14T04:52:59.904Z,64.15
2019-05-14T04:55:49.443Z,62.08
2019-05-14T04:58:40.992Z,62.83
2019-05-14T05:01:29.503Z,59.48
2019-05-14T05:04:20.347Z,58.58
2019-05-14T05:07:10.001Z,57.98
2019-05-14T05:09:59.328Z,58.30
2019-05-14T05:12:49.330Z,58.68
2019-05-14T05:15:39.539Z,57.75
2019-05-14T05:18:29.455Z,57.67
2019-05-14T05:21:19.289Z,56.98
2019-05-14T05:24:09.210Z,56.30
2019-05-14T05:26:58.690Z,57.60
2019-05-14T05:29:48.560Z,57.27
2019-05-14T05:32:38.919Z,55.70
2019-05-14T05:35:29.221Z,56.00
2019-05-14T05:38:18.347Z,56.68
2019-05-14T05:41:08.812Z,56.58
2019-05-14T05:43:58.902Z,54.13
2019-05-14T05:46:49.161Z,54.05
2019-05-14T05:49:38.138Z,55.00
2019-05-14T05:52:28.315Z,51.98
2019-05-14T05:55:19.140Z,52.45
2019-05-14T05:58:08.672Z,54.23
2019-05-14T06:00:59.146Z,52.40
2019-05-14T06:03:49.208Z,57.43
2019-05-14T06:06:39.015Z,52.25
2019-05-14T06:09:28.659Z,51.45
2019-05-14T06:12:18.996Z,53.63
2019-05-14T06:15:08.684Z,52.30
2019-05-14T06:18:11.655Z,50.98
2019-05-14T06:20:49.510Z,50.92
2019-05-14T06:23:38.794Z,50.28
2019-05-14T06:26:28.970Z,51.10
2019-05-14T06:29:18.678Z,50.23
2019-05-14T06:32:09.326Z,50.45
2019-05-14T06:34:59.263Z,50.58
2019-05-14T06:37:48.838Z,48.63
2019-05-14T06:40:39.264Z,49.77
2019-05-14T06:43:28.825Z,49.20
2019-05-14T06:46:19.008Z,48.78
2019-05-14T06:49:08.942Z,49.13
2019-05-14T06:51:59.014Z,50.33
2019-05-14T06:54:49.376Z,48.10
2019-05-14T06:57:39.090Z,48.73
2019-05-14T07:00:28.607Z,47.80
2019-05-14T07:03:18.023Z,50.55
2019-05-14T07:06:09.010Z,48.05
2019-05-14T07:08:58.864Z,48.98
2019-05-14T07:11:49.196Z,46.83
2019-05-14T07:14:38.913Z,47.40
2019-05-14T07:17:28.831Z,46.25
2019-05-14T07:20:18.915Z,49.27
2019-05-14T07:23:08.218Z,46.35
2019-05-14T07:25:58.924Z,46.13
2019-05-14T07:28:48.863Z,47.03
2019-05-14T07:31:38.488Z,46.95
2019-05-14T07:34:28.243Z,46.15
2019-05-14T07:37:18.055Z,46.18
2019-05-14T07:40:08.538Z,45.80
2019-05-14T07:42:58.342Z,46.40
2019-05-14T07:45:49.111Z,45.73
2019-05-14T07:48:39.248Z,45.30
2019-05-14T07:51:29.048Z,45.55
2019-05-14T07:54:19.538Z,46.25
2019-05-14T07:57:08.907Z,44.95
2019-05-14T07:59:58.847Z,43.85
2019-05-14T08:02:49.123Z,44.42
2019-05-14T08:05:38.954Z,44.15
2019-05-14T08:08:29.225Z,44.03
2019-05-14T08:11:19.112Z,57.60
2019-05-14T08:14:09.043Z,43.40
2019-05-14T08:16:59.498Z,42.53
2019-05-14T08:19:51.336Z,42.50
2019-05-14T08:22:39.668Z,44.23
2019-05-14T08:25:28.369Z,44.13
2019-05-14T08:28:18.436Z,43.87
2019-05-14T08:31:09.147Z,42.35
2019-05-14T08:33:58.980Z,44.20
2019-05-14T08:36:48.363Z,42.93
2019-05-14T08:39:39.211Z,40.80
2019-05-14T08:42:28.949Z,42.13
2019-05-14T08:45:18.997Z,40.55
2019-05-14T08:48:09.194Z,40.48
2019-05-14T08:50:58.750Z,40.58
2019-05-14T08:53:50.096Z,40.38
2019-05-14T08:56:38.994Z,40.38
2019-05-14T08:59:28.646Z,40.08
2019-05-14T09:02:19.672Z,39.27
2019-05-14T09:05:10.223Z,39.60
2019-05-14T09:07:58.178Z,39.92
2019-05-14T09:10:49.461Z,38.38
2019-05-14T09:13:38.326Z,42.23
2019-05-14T09:16:41.820Z,40.28
2019-05-14T09:19:19.082Z,37.90
2019-05-14T09:22:09.379Z,39.15
2019-05-14T09:24:59.870Z,38.05
2019-05-14T09:27:49.089Z,39.58
2019-05-14T09:30:38.137Z,40.00
2019-05-14T09:33:31.818Z,39.58
2019-05-14T09:36:23.990Z,39.35
2019-05-14T09:39:12.266Z,39.05
2019-05-14T09:42:00.159Z,41.48
2019-05-14T09:44:49.059Z,42.88
2019-05-14T09:47:39.134Z,39.78
2019-05-14T09:50:29.124Z,39.18
2019-05-14T09:53:20.990Z,42.30
2019-05-14T09:56:14.637Z,39.78
2019-05-14T09:59:06.252Z,40.48
2019-05-14T10:01:55.489Z,43.00
2019-05-14T10:04:44.018Z,38.92
2019-05-14T10:07:32.545Z,38.73
2019-05-14T10:10:21.153Z,39.73
2019-05-14T10:13:09.927Z,39.67
2019-05-14T10:15:58.922Z,38.88
2019-05-14T10:18:48.699Z,38.92
2019-05-14T10:21:38.861Z,39.73
2019-05-14T10:24:29.104Z,40.40
2019-05-14T10:27:18.936Z,39.60
2019-05-14T10:30:10.349Z,40.78
2019-05-14T10:33:07.094Z,39.05
2019-05-14T10:35:49.527Z,38.58
2019-05-14T10:38:38.756Z,40.38
2019-05-14T10:41:29.107Z,38.75
2019-05-14T10:44:39.098Z,38.27
2019-05-14T10:47:29.224Z,39.63
2019-05-14T10:50:19.148Z,38.78
2019-05-14T10:53:09.019Z,38.88
2019-05-14T10:55:58.276Z,38.98
2019-05-14T10:58:48.907Z,38.42
2019-05-14T11:01:38.913Z,38.83
2019-05-14T11:04:28.578Z,38.67
2019-05-14T11:07:18.417Z,38.73
2019-05-14T11:10:09.444Z,38.30
2019-05-14T11:12:59.364Z,38.53
2019-05-14T11:15:48.664Z,38.92
2019-05-14T11:18:39.622Z,39.25
2019-05-14T11:21:30.227Z,38.78
2019-05-14T11:24:19.036Z,38.48
2019-05-14T11:27:07.381Z,39.60
2019-05-14T11:29:55.801Z,38.08
2019-05-14T11:32:44.262Z,38.98
2019-05-14T11:35:32.531Z,39.13
2019-05-14T11:38:31.952Z,39.88
2019-05-14T11:41:10.425Z,44.53
2019-05-14T11:43:59.464Z,51.20
2019-05-14T11:46:57.187Z,51.40
2019-05-14T11:49:38.293Z,55.25
2019-05-14T11:52:28.626Z,57.40
2019-05-14T11:55:18.523Z,59.27
2019-05-14T11:58:08.604Z,63.15
2019-05-14T12:00:58.332Z,62.78
2019-05-14T12:03:46.020Z,61.68
2019-05-14T12:06:34.569Z,64.05
2019-05-14T12:09:23.087Z,65.37
2019-05-14T12:12:12.671Z,64.37
2019-05-14T12:15:01.410Z,62.25
2019-05-14T12:17:51.286Z,61.05
2019-05-14T12:20:39.965Z,60.43
2019-05-14T12:23:29.821Z,61.20
2019-05-14T12:26:19.110Z,58.75
2019-05-14T12:29:09.859Z,56.20
2019-05-14T12:31:58.784Z,57.48
2019-05-14T12:34:48.871Z,57.20
2019-05-14T12:37:38.705Z,56.80
2019-05-14T12:40:28.884Z,54.45
2019-05-14T12:43:18.783Z,54.20
2019-05-14T12:46:10.064Z,52.88
2019-05-14T12:48:58.947Z,53.75
2019-05-14T12:51:49.399Z,53.68
2019-05-14T12:54:38.857Z,52.55
2019-05-14T12:57:29.974Z,51.80
2019-05-14T13:00:17.290Z,49.83
2019-05-14T13:03:05.949Z,51.53
2019-05-14T13:05:55.573Z,51.13
2019-05-14T13:08:43.869Z,50.80
2019-05-14T13:11:32.417Z,50.38
2019-05-14T13:14:21.154Z,48.80
2019-05-14T13:17:09.486Z,48.95
2019-05-14T13:19:58.021Z,47.67
2019-05-14T13:22:50.412Z,48.13
2019-05-14T13:25:39.641Z,49.38
2019-05-14T13:28:29.180Z,47.33
2019-05-14T13:31:18.480Z,46.42
2019-05-14T13:34:08.906Z,47.13
2019-05-14T13:36:59.704Z,45.92
2019-05-14T13:39:52.666Z,47.30
2019-05-14T13:42:39.527Z,47.00
2019-05-14T13:45:30.088Z,45.67
2019-05-14T13:48:18.832Z,45.48
2019-05-14T13:51:08.944Z,47.30
2019-05-14T13:53:58.997Z,44.35
2019-05-14T13:56:48.368Z,45.78
2019-05-14T13:59:44.076Z,44.53
2019-05-14T14:02:28.867Z,45.17
2019-05-14T14:05:19.928Z,45.63
2019-05-14T14:08:08.618Z,46.90
2019-05-14T14:11:02.272Z,45.20
2019-05-14T14:13:48.731Z,45.52
2019-05-14T14:16:39.385Z,44.00
2019-05-14T14:19:28.235Z,44.23
2019-05-14T14:22:19.510Z,45.52
2019-05-14T14:25:09.163Z,45.80
2019-05-14T14:30:51.782Z,43.87
2019-05-14T14:33:40.322Z,44.13
2019-05-14T14:36:29.937Z,43.63
2019-05-14T14:39:19.674Z,43.95
2019-05-14T14:42:07.958Z,43.10
2019-05-14T14:44:57.169Z,42.78
2019-05-14T14:47:45.684Z,42.83
2019-05-14T14:50:33.961Z,42.67
2019-05-14T14:53:41.458Z,43.25
2019-05-14T14:56:12.336Z,42.50
2019-05-14T14:59:00.768Z,43.23
2019-05-14T15:01:50.177Z,42.78
2019-05-14T15:04:40.040Z,42.15
2019-05-14T15:07:30.088Z,42.88
2019-05-14T15:10:19.266Z,44.80
2019-05-14T15:13:09.347Z,41.75
2019-05-14T15:16:00.833Z,41.92
2019-05-14T15:18:49.715Z,41.70
2019-05-14T15:21:38.357Z,41.25
2019-05-14T15:24:26.609Z,41.92
2019-05-14T15:27:15.466Z,41.58
2019-05-14T15:30:06.701Z,40.98
2019-05-14T15:32:55.246Z,40.92
2019-05-14T15:35:45.085Z,40.83
2019-05-14T15:38:33.429Z,41.92
2019-05-14T15:41:22.002Z,41.28
2019-05-14T15:44:11.517Z,41.30
2019-05-14T15:46:59.725Z,40.83
2019-05-14T15:49:48.833Z,42.73
2019-05-14T15:52:39.851Z,40.95
2019-05-14T15:55:28.897Z,42.93
2019-05-14T15:58:21.237Z,41.53
2019-05-14T16:01:10.012Z,40.52
2019-05-14T16:03:58.803Z,41.48
2019-05-14T16:06:48.912Z,40.03
2019-05-14T16:09:39.783Z,39.85
2019-05-14T16:12:31.898Z,39.98
2019-05-14T16:15:18.807Z,40.92
2019-05-14T16:18:14.878Z,39.55
2019-05-14T16:20:59.298Z,40.28
2019-05-14T16:23:47.037Z,39.92
2019-05-14T16:26:34.985Z,39.30
2019-05-14T16:29:38.238Z,41.18
2019-05-14T16:32:14.613Z,39.88
2019-05-14T16:35:03.249Z,39.08
2019-05-14T16:37:51.982Z,40.10
2019-05-14T16:40:40.285Z,39.67
2019-05-14T16:43:32.134Z,39.98
2019-05-14T16:46:18.961Z,39.73
2019-05-14T16:49:08.896Z,39.83
2019-05-14T16:51:59.611Z,39.25
2019-05-14T16:54:48.769Z,39.85
2019-05-14T16:57:38.635Z,39.60
2019-05-14T17:00:29.444Z,39.60
2019-05-14T17:03:19.097Z,39.53
2019-05-14T17:06:07.889Z,39.10
2019-05-14T17:08:56.305Z,40.63
2019-05-14T17:11:44.569Z,38.95
2019-05-14T17:14:32.841Z,39.58
2019-05-14T17:17:21.033Z,46.08
2019-05-14T17:20:09.434Z,39.40
2019-05-14T17:23:03.033Z,39.83
2019-05-14T17:25:51.409Z,41.73
2019-05-14T17:28:40.720Z,61.02
2019-05-14T17:31:31.189Z,73.57
2019-05-14T17:34:19.807Z,169.30
2019-05-14T17:37:09.819Z,140.60
2019-05-14T17:39:58.291Z,127.32
2019-05-14T17:42:48.701Z,102.70
2019-05-14T17:45:39.032Z,93.47
2019-05-14T17:48:28.482Z,88.47
2019-05-14T17:51:18.138Z,84.87
2019-05-14T17:54:09.207Z,84.55
2019-05-14T17:56:59.194Z,85.72
2019-05-14T17:59:49.627Z,81.40
2019-05-14T18:02:37.884Z,75.45
2019-05-14T18:05:28.946Z,73.52
2019-05-14T18:08:18.358Z,103.97
2019-05-14T18:11:08.535Z,236.97
2019-05-14T18:13:58.367Z,241.05
2019-05-14T18:16:46.110Z,261.10
2019-05-14T18:19:34.264Z,241.82
2019-05-14T18:22:22.926Z,206.00
2019-05-14T18:25:11.173Z,187.27
2019-05-14T18:27:59.729Z,182.60
2019-05-14T18:30:49.070Z,207.65
2019-05-14T18:33:39.803Z,448.02
2019-05-14T18:36:28.488Z,325.15
2019-05-14T18:39:20.607Z,269.23
2019-05-14T18:42:08.609Z,266.88
2019-05-14T18:44:58.984Z,247.35
2019-05-14T18:47:48.501Z,242.40
2019-05-14T18:50:37.331Z,236.80
2019-05-14T18:53:28.719Z,228.88
2019-05-14T18:56:23.586Z,224.85
2019-05-14T18:59:08.907Z,216.85
2019-05-14T19:01:59.241Z,206.28
2019-05-14T19:04:48.443Z,802.77
2019-05-14T19:07:38.655Z,694.83
2019-05-14T19:10:28.017Z,276.23
2019-05-14T19:13:18.576Z,252.22
2019-05-14T19:16:08.208Z,245.50
2019-05-14T19:18:58.375Z,234.07
2019-05-14T19:21:48.694Z,220.52
2019-05-14T19:24:38.276Z,219.50
2019-05-14T19:27:28.589Z,203.25
2019-05-14T19:30:18.970Z,194.40
2019-05-14T19:33:08.556Z,181.82
2019-05-14T19:35:57.290Z,175.80
2019-05-14T19:38:45.493Z,168.37
2019-05-14T19:41:33.852Z,161.25
2019-05-14T19:44:22.149Z,237.72
2019-05-14T19:47:10.510Z,431.80
2019-05-14T19:49:59.104Z,245.48
2019-05-14T19:52:48.713Z,220.27
2019-05-14T19:55:40.995Z,215.72
2019-05-14T19:58:30.121Z,233.28
2019-05-14T20:01:19.841Z,233.17
2019-05-14T20:04:10.881Z,224.60
2019-05-14T20:06:59.152Z,223.10
2019-05-14T20:09:48.266Z,199.53
2019-05-14T20:12:39.335Z,201.22
2019-05-14T20:15:27.729Z,224.77
2019-05-14T20:18:16.296Z,431.67
2019-05-14T20:21:05.000Z,257.07
2019-05-14T20:23:53.146Z,243.70
2019-05-14T20:26:41.727Z,245.85
2019-05-14T20:29:30.125Z,254.38
2019-05-14T20:32:19.418Z,267.40
2019-05-14T20:35:08.924Z,279.57
2019-05-14T20:37:58.825Z,265.90
2019-05-14T20:40:48.662Z,251.88
2019-05-14T20:43:38.479Z,251.60
2019-05-14T20:46:28.535Z,250.25
2019-05-14T20:49:19.013Z,262.08
2019-05-14T20:52:08.611Z,259.45
2019-05-14T20:54:58.328Z,239.53
2019-05-14T20:57:48.872Z,241.93
2019-05-14T21:00:41.226Z,253.65
2019-05-14T21:03:29.144Z,304.40
2019-05-14T21:06:18.929Z,260.45
2019-05-14T21:09:07.789Z,247.37
2019-05-14T21:11:56.050Z,252.90
2019-05-14T21:14:44.772Z,305.75
2019-05-14T21:17:33.293Z,276.58
2019-05-14T21:20:21.978Z,260.32
2019-05-14T21:23:10.262Z,301.25
2019-05-14T21:25:59.822Z,273.73
2019-05-14T21:28:48.713Z,262.85
2019-05-14T21:31:38.486Z,259.57
2019-05-14T21:34:28.215Z,246.95
2019-05-14T21:37:18.772Z,237.75
2019-05-14T21:40:09.287Z,261.37
2019-05-14T21:42:57.377Z,236.90
2019-05-14T21:45:45.785Z,226.20
2019-05-14T21:48:34.042Z,217.85
2019-05-14T21:51:22.385Z,211.40
2019-05-14T21:54:10.650Z,203.20
2019-05-14T21:56:59.208Z,184.32
2019-05-14T21:59:48.320Z,182.50
2019-05-14T22:02:38.296Z,173.55
2019-05-14T22:05:28.444Z,175.55
2019-05-14T22:08:17.368Z,161.92
2019-05-14T22:11:05.679Z,158.12
2019-05-14T22:13:54.200Z,155.75
2019-05-14T22:16:42.557Z,150.53
2019-05-14T22:19:31.137Z,188.15
2019-05-14T22:22:19.404Z,215.37
2019-05-14T22:25:08.042Z,159.97
2019-05-14T22:28:08.978Z,158.90
2019-05-14T22:30:46.790Z,167.77
2019-05-14T22:33:35.369Z,168.82
2019-05-14T22:36:23.946Z,166.82
2019-05-14T22:39:12.217Z,211.65
2019-05-14T22:42:00.890Z,181.00
2019-05-14T22:44:50.392Z,167.13
2019-05-14T22:47:40.479Z,177.15
2019-05-14T22:50:29.544Z,177.95
2019-05-14T22:53:18.121Z,176.55
2019-05-14T22:56:08.301Z,175.68
2019-05-14T22:58:58.294Z,173.57
2019-05-14T23:04:43.697Z,162.45
2019-05-14T23:07:32.144Z,158.97
2019-05-14T23:10:20.744Z,156.87
2019-05-14T23:13:09.374Z,162.82
2019-05-14T23:15:58.854Z,154.47
2019-05-14T23:18:48.717Z,157.93
2019-05-14T23:21:39.089Z,187.85
2019-05-14T23:24:28.491Z,189.05
2019-05-14T23:27:18.843Z,186.85
2019-05-14T23:30:09.517Z,192.35
2019-05-14T23:32:58.004Z,202.85
2019-05-14T23:35:48.204Z,200.43
2019-05-14T23:38:38.711Z,190.05
2019-05-14T23:41:28.662Z,185.32
2019-05-14T23:44:18.990Z,175.82
2019-05-14T23:47:08.284Z,171.87
2019-05-14T23:49:58.431Z,163.87
2019-05-14T23:52:49.109Z,157.65
2019-05-14T23:55:38.486Z,153.78
2019-05-14T23:58:28.958Z,148.30
